Time;durP1;ratioP1;P1;durP2;ratioP2;P2;SDS_P1;SDS_P2;PMS_P1;PMS_P2;Temp;Humidity;BMP_temperature;BMP_pressure;BME280_temperature;BME280_humidity;BME280_pressure;Samples;Min_cycle;Max_cycle;Signal;HPM_P1;HPM_P2
2021/11/24 00:00:27;;;;;;;2.28;1.25;;;21.80;49.70;;;;;;5037109;28;20028;-57
2021/11/24 00:02:53;;;;;;;2.13;1.20;;;21.80;49.70;;;;;;5034596;28;20036;-53
2021/11/24 00:05:20;;;;;;;4.70;1.42;;;21.80;49.70;;;;;;5033653;28;20337;-58
2021/11/24 00:07:46;;;;;;;2.95;1.25;;;21.80;49.70;;;;;;5029121;28;20040;-59
2021/11/24 00:10:15;;;;;;;2.45;1.20;;;21.70;49.70;;;;;;5033366;28;20090;-54
2021/11/24 00:12:40;;;;;;;2.33;1.27;;;21.70;49.80;;;;;;5034429;28;20049;-59
2021/11/24 00:15:08;;;;;;;2.53;1.17;;;21.70;49.80;;;;;;5032056;28;20060;-58
2021/11/24 00:17:34;;;;;;;1.95;1.10;;;21.70;49.80;;;;;;5036062;28;20112;-58
2021/11/24 00:19:59;;;;;;;1.90;1.10;;;21.70;49.80;;;;;;5029591;28;20029;-60
2021/11/24 00:22:25;;;;;;;2.00;1.30;;;21.60;49.80;;;;;;5033352;28;20033;-59
2021/11/24 00:24:51;;;;;;;2.60;1.30;;;21.60;49.80;;;;;;5032789;28;20040;-59
2021/11/24 00:27:16;;;;;;;3.03;1.30;;;21.60;49.90;;;;;;5031164;28;20037;-60
2021/11/24 00:29:42;;;;;;;1.98;1.10;;;21.60;49.90;;;;;;5032485;28;20060;-57
2021/11/24 00:32:08;;;;;;;4.25;1.27;;;21.60;49.90;;;;;;5032890;28;20038;-57
2021/11/24 00:34:34;;;;;;;2.22;1.20;;;21.50;49.90;;;;;;5034659;28;20025;-60
2021/11/24 00:37:00;;;;;;;2.15;1.10;;;21.50;50.00;;;;;;5029493;28;20033;-58
2021/11/24 00:39:26;;;;;;;2.40;1.00;;;21.50;50.00;;;;;;5031059;28;20036;-60
2021/11/24 00:41:52;;;;;;;2.88;1.20;;;21.50;50.00;;;;;;5036537;28;20456;-60
2021/11/24 00:44:17;;;;;;;2.28;1.20;;;21.50;50.00;;;;;;5034482;28;20033;-60
2021/11/24 00:46:43;;;;;;;2.03;1.20;;;21.40;50.00;;;;;;5033079;28;20044;-57
2021/11/24 00:49:10;;;;;;;1.98;1.20;;;21.40;50.00;;;;;;5032306;28;20111;-59
2021/11/24 00:51:36;;;;;;;2.38;1.20;;;21.40;50.00;;;;;;5031970;28;20548;-60
2021/11/24 00:54:02;;;;;;;2.20;1.23;;;21.40;50.00;;;;;;5032690;28;20759;-60
2021/11/24 00:56:28;;;;;;;2.47;1.23;;;21.40;50.00;;;;;;5032096;28;20430;-61
2021/11/24 00:58:54;;;;;;;1.95;1.10;;;21.30;50.00;;;;;;5031708;28;20067;-60
2021/11/24 01:01:19;;;;;;;1.95;1.15;;;21.40;50.10;;;;;;5034125;28;20033;-60
2021/11/24 01:03:45;;;;;;;1.90;1.10;;;21.30;50.10;;;;;;5030705;28;20672;-58
2021/11/24 01:06:11;;;;;;;2.35;1.20;;;21.30;50.10;;;;;;5031007;28;20068;-60
2021/11/24 01:08:36;;;;;;;2.20;1.27;;;21.30;50.10;;;;;;5033404;28;20174;-59
2021/11/24 01:11:03;;;;;;;3.22;1.40;;;21.30;50.10;;;;;;5029808;28;20131;-59
2021/11/24 01:13:28;;;;;;;2.88;1.20;;;21.30;50.10;;;;;;5027528;28;20041;-60
2021/11/24 01:15:54;;;;;;;3.05;1.17;;;21.30;50.10;;;;;;5030564;28;20699;-57
2021/11/24 01:18:21;;;;;;;2.45;1.30;;;21.30;50.10;;;;;;5036716;28;20430;-59
2021/11/24 01:20:47;;;;;;;1.73;1.20;;;21.20;50.10;;;;;;5036472;28;20021;-59
2021/11/24 01:23:14;;;;;;;2.45;1.50;;;21.20;50.10;;;;;;5029512;28;20033;-57
2021/11/24 01:25:40;;;;;;;1.85;1.10;;;21.20;50.10;;;;;;5033554;28;20785;-62
2021/11/24 01:28:05;;;;;;;3.17;1.20;;;21.20;50.20;;;;;;5037035;28;20037;-59
2021/11/24 01:30:31;;;;;;;1.80;1.10;;;21.20;50.20;;;;;;5030987;28;20041;-60
2021/11/24 01:32:57;;;;;;;2.40;1.40;;;21.20;50.20;;;;;;5031295;28;20044;-58
2021/11/24 01:35:23;;;;;;;2.05;1.30;;;21.20;50.20;;;;;;5029906;28;20488;-60
2021/11/24 01:37:49;;;;;;;2.35;1.10;;;21.10;50.20;;;;;;5032037;28;20462;-60
2021/11/24 01:40:14;;;;;;;2.20;1.20;;;21.10;50.20;;;;;;5028161;28;20115;-60
2021/11/24 01:42:41;;;;;;;1.88;1.13;;;21.10;50.20;;;;;;5032836;28;20057;-59
2021/11/24 01:45:08;;;;;;;1.90;1.10;;;21.10;50.20;;;;;;5035609;28;20067;-55
2021/11/24 01:47:33;;;;;;;2.60;1.30;;;21.10;50.20;;;;;;5032507;28;20039;-60
2021/11/24 01:49:59;;;;;;;2.30;1.15;;;21.10;50.30;;;;;;5037817;28;20532;-60
2021/11/24 01:52:25;;;;;;;1.85;1.20;;;21.10;50.30;;;;;;5033623;28;20473;-58
2021/11/24 01:54:50;;;;;;;2.83;1.40;;;21.00;50.30;;;;;;5032561;28;20037;-60
2021/11/24 01:57:18;;;;;;;2.85;1.00;;;21.00;50.30;;;;;;5032697;28;20029;-60
2021/11/24 01:59:47;;;;;;;1.60;1.15;;;21.00;50.30;;;;;;5037063;28;20040;-59
2021/11/24 02:02:13;;;;;;;;;;;21.00;50.30;;;;;;5035325;28;20406;-56
2021/11/24 02:04:38;;;;;;;2.00;1.20;;;21.00;50.30;;;;;;5030308;28;19913;-60
2021/11/24 02:07:04;;;;;;;1.83;1.10;;;21.00;50.30;;;;;;5041846;28;20635;-60
2021/11/24 02:09:30;;;;;;;1.90;1.17;;;21.00;50.30;;;;;;5035673;28;20064;-58
2021/11/24 02:11:57;;;;;;;1.92;1.17;;;21.00;50.40;;;;;;5032397;28;20057;-58
2021/11/24 02:14:23;;;;;;;2.25;1.13;;;21.00;50.40;;;;;;5036191;28;20022;-60
2021/11/24 02:16:52;;;;;;;1.75;1.20;;;20.90;50.30;;;;;;5034433;28;20025;-59
2021/11/24 02:19:19;;;;;;;1.80;1.10;;;20.90;50.40;;;;;;5035253;28;20034;-58
2021/11/24 02:21:52;;;;;;;1.95;1.23;;;20.90;50.40;;;;;;5032561;28;20065;-60
2021/11/24 02:24:20;;;;;;;2.20;1.30;;;20.90;50.40;;;;;;5031291;28;20033;-60
2021/11/24 02:26:46;;;;;;;3.05;1.20;;;20.90;50.40;;;;;;5034721;28;20310;-60
2021/11/24 02:29:12;;;;;;;2.55;1.30;;;20.90;50.40;;;;;;5034620;28;20029;-55
2021/11/24 02:31:37;;;;;;;2.10;1.20;;;20.80;50.40;;;;;;5037893;28;20125;-60
2021/11/24 02:34:04;;;;;;;2.00;1.00;;;20.80;50.40;;;;;;5036488;28;20500;-60
2021/11/24 02:36:31;;;;;;;2.28;1.15;;;20.80;50.40;;;;;;5032895;28;20075;-59
2021/11/24 02:38:59;;;;;;;1.90;1.20;;;20.80;50.40;;;;;;5030338;28;20389;-58
2021/11/24 02:41:25;;;;;;;1.33;1.05;;;20.80;50.40;;;;;;5035063;28;20064;-58
2021/11/24 02:43:51;;;;;;;2.13;1.10;;;20.80;50.50;;;;;;5031176;28;20043;-56
2021/11/24 02:46:17;;;;;;;2.50;1.20;;;20.80;50.50;;;;;;5038867;28;20036;-57
2021/11/24 02:48:42;;;;;;;1.10;0.90;;;20.80;50.50;;;;;;5035610;28;20025;-57
2021/11/24 02:51:08;;;;;;;2.70;1.08;;;20.80;50.50;;;;;;5036800;28;20481;-54
2021/11/24 02:53:35;;;;;;;1.67;1.00;;;20.80;50.50;;;;;;5034427;28;20489;-59
2021/11/24 02:56:02;;;;;;;1.88;1.00;;;20.80;50.50;;;;;;5030338;28;20102;-57
2021/11/24 02:58:28;;;;;;;2.45;1.08;;;20.70;51.00;;;;;;5036060;28;20124;-61
2021/11/24 03:00:57;;;;;;;1.92;1.02;;;20.70;50.50;;;;;;5032847;28;20446;-61
2021/11/24 03:03:22;;;;;;;2.00;1.10;;;20.70;50.50;;;;;;5036006;28;20041;-59
2021/11/24 03:05:48;;;;;;;2.13;1.25;;;20.70;50.50;;;;;;5033008;28;20291;-57
2021/11/24 03:08:14;;;;;;;3.38;1.30;;;20.70;50.50;;;;;;5030629;28;20025;-56
2021/11/24 03:10:40;;;;;;;3.42;1.30;;;20.70;50.60;;;;;;5029763;28;20033;-59
2021/11/24 03:13:06;;;;;;;2.42;1.02;;;20.70;50.60;;;;;;5038984;28;20025;-58
2021/11/24 03:15:32;;;;;;;2.08;1.23;;;20.70;50.60;;;;;;5031961;28;20158;-56
2021/11/24 03:17:58;;;;;;;1.45;1.00;;;20.70;51.10;;;;;;5033886;28;20040;-59
2021/11/24 03:20:26;;;;;;;1.42;1.05;;;20.70;50.60;;;;;;5032667;28;20629;-61
2021/11/24 03:22:54;;;;;;;2.05;1.10;;;20.60;50.60;;;;;;5033607;28;20117;-57
2021/11/24 03:25:20;;;;;;;1.83;1.00;;;20.60;51.10;;;;;;5031099;28;20095;-55
2021/11/24 03:27:45;;;;;;;2.35;1.13;;;20.60;50.60;;;;;;5036110;28;20821;-61
2021/11/24 03:30:21;;;;;;;2.20;1.00;;;20.60;50.60;;;;;;5027330;28;20112;-57
2021/11/24 03:32:47;;;;;;;2.50;1.40;;;20.60;50.60;;;;;;5035841;28;20055;-59
2021/11/24 03:35:16;;;;;;;2.15;1.30;;;20.60;50.70;;;;;;5032613;28;20029;-57
2021/11/24 03:37:42;;;;;;;2.80;1.27;;;20.60;50.60;;;;;;5037561;28;20036;-58
2021/11/24 03:40:10;;;;;;;2.10;1.10;;;20.60;50.70;;;;;;5036135;28;20029;-59
2021/11/24 03:42:36;;;;;;;1.85;1.08;;;20.60;51.20;;;;;;5031331;28;20690;-60
2021/11/24 03:45:03;;;;;;;2.03;1.20;;;20.60;50.70;;;;;;5028585;28;20141;-61
2021/11/24 03:47:28;;;;;;;2.20;1.23;;;20.50;50.70;;;;;;5032451;28;20086;-61
2021/11/24 03:49:54;;;;;;;1.58;0.98;;;20.50;50.70;;;;;;5032173;28;20037;-59
2021/11/24 03:52:19;;;;;;;1.92;1.00;;;20.50;50.70;;;;;;5029380;28;20120;-59
2021/11/24 03:54:45;;;;;;;1.42;0.98;;;20.60;50.80;;;;;;5035617;28;20786;-59
2021/11/24 03:57:11;;;;;;;2.08;1.17;;;20.50;50.80;;;;;;5032487;28;20043;-61
2021/11/24 03:59:37;;;;;;;1.58;1.00;;;20.50;50.80;;;;;;5032376;28;20071;-59
2021/11/24 04:02:02;;;;;;;1.85;1.10;;;20.50;50.80;;;;;;5032743;28;20142;-58
2021/11/24 04:04:28;;;;;;;1.65;1.17;;;20.50;50.80;;;;;;5030965;28;20033;-58
2021/11/24 04:06:54;;;;;;;1.65;0.90;;;20.50;50.80;;;;;;5032390;28;20045;-60
2021/11/24 04:09:19;;;;;;;2.25;1.08;;;20.50;50.80;;;;;;5036415;28;20357;-60
2021/11/24 04:11:45;;;;;;;2.47;1.10;;;20.50;50.80;;;;;;5030476;28;20057;-60
2021/11/24 04:14:11;;;;;;;1.88;1.15;;;20.50;50.80;;;;;;5030761;28;20033;-61
2021/11/24 04:16:36;;;;;;;2.10;1.13;;;20.50;50.80;;;;;;5031640;28;20123;-59
2021/11/24 04:19:02;;;;;;;1.85;1.10;;;20.50;50.90;;;;;;5032909;28;20026;-60
2021/11/24 04:21:30;;;;;;;2.10;1.10;;;20.50;50.90;;;;;;5033579;28;20120;-60
2021/11/24 04:23:57;;;;;;;1.85;1.15;;;20.40;50.80;;;;;;5029673;28;20113;-59
2021/11/24 04:26:22;;;;;;;1.42;1.00;;;20.40;50.80;;;;;;5033499;28;20044;-58
2021/11/24 04:28:48;;;;;;;1.70;1.00;;;20.40;50.80;;;;;;5027499;28;20029;-60
2021/11/24 04:31:14;;;;;;;1.92;1.00;;;20.40;50.90;;;;;;5030541;28;20036;-60
2021/11/24 04:33:40;;;;;;;1.92;1.20;;;20.40;50.90;;;;;;5029273;28;20049;-60
2021/11/24 04:36:07;;;;;;;1.70;1.00;;;20.40;50.90;;;;;;5033527;28;20485;-60
2021/11/24 04:38:33;;;;;;;1.48;0.88;;;20.40;50.90;;;;;;5026603;28;20025;-59
2021/11/24 04:40:59;;;;;;;1.52;1.00;;;20.40;50.90;;;;;;5026150;28;20036;-61
2021/11/24 04:43:29;;;;;;;1.98;1.08;;;20.40;50.90;;;;;;5031693;28;20413;-57
2021/11/24 04:45:56;;;;;;;1.73;1.02;;;20.40;50.90;;;;;;5034043;28;20444;-61
2021/11/24 04:48:21;;;;;;;1.33;0.93;;;20.40;50.90;;;;;;5030824;28;20028;-61
2021/11/24 04:50:47;;;;;;;1.75;1.10;;;20.40;50.90;;;;;;5034861;28;20029;-61
2021/11/24 04:53:13;;;;;;;1.55;1.00;;;20.40;50.90;;;;;;5029555;28;20026;-58
2021/11/24 04:55:39;;;;;;;1.40;1.00;;;20.40;50.90;;;;;;5028297;28;20057;-59
2021/11/24 04:58:05;;;;;;;1.77;1.08;;;20.40;50.90;;;;;;5031388;28;20030;-60
2021/11/24 05:00:31;;;;;;;1.60;1.10;;;20.40;50.90;;;;;;5034268;28;20021;-56
2021/11/24 05:02:56;;;;;;;1.23;0.95;;;20.40;50.90;;;;;;5026706;28;20029;-57
2021/11/24 05:05:27;;;;;;;1.63;1.05;;;20.40;50.90;;;;;;5031977;28;20041;-58
2021/11/24 05:07:53;;;;;;;1.40;0.90;;;20.40;50.90;;;;;;5033420;28;20075;-58
2021/11/24 05:10:19;;;;;;;0.90;0.70;;;20.40;50.90;;;;;;5029250;28;20025;-59
2021/11/24 05:12:44;;;;;;;1.48;1.00;;;20.40;50.90;;;;;;5030857;28;20034;-59
2021/11/24 05:15:17;;;;;;;1.92;1.00;;;20.40;50.90;;;;;;5034327;28;20026;-56
2021/11/24 05:17:45;;;;;;;1.20;0.80;;;20.40;50.90;;;;;;5040837;28;20025;-58
2021/11/24 05:20:11;;;;;;;1.40;1.00;;;20.40;51.00;;;;;;5035403;28;20052;-62
2021/11/24 05:22:37;;;;;;;1.40;0.95;;;20.40;51.00;;;;;;5036028;28;20039;-60
2021/11/24 05:25:03;;;;;;;1.25;0.82;;;20.40;51.00;;;;;;5029060;28;20029;-61
2021/11/24 05:27:29;;;;;;;1.40;0.90;;;20.40;51.00;;;;;;5034606;28;20073;-60
2021/11/24 05:29:54;;;;;;;1.80;0.90;;;20.40;51.00;;;;;;5038752;28;20033;-60
2021/11/24 05:32:20;;;;;;;1.90;1.15;;;20.40;51.00;;;;;;5035974;28;20036;-59
2021/11/24 05:34:46;;;;;;;1.20;0.90;;;20.40;51.00;;;;;;5034062;28;20024;-59
2021/11/24 05:37:11;;;;;;;1.60;1.00;;;20.30;51.00;;;;;;5033587;28;20033;-58
2021/11/24 05:39:37;;;;;;;1.10;0.90;;;20.30;51.00;;;;;;5037623;28;20572;-60
2021/11/24 05:42:04;;;;;;;1.50;0.90;;;20.40;51.10;;;;;;5038332;28;20064;-61
2021/11/24 05:44:33;;;;;;;1.65;1.10;;;20.30;51.00;;;;;;5035112;28;20113;-61
2021/11/24 05:47:07;;;;;;;1.60;0.98;;;20.30;51.10;;;;;;5041271;28;20133;-60
2021/11/24 05:49:35;;;;;;;1.55;1.00;;;20.30;51.10;;;;;;5039831;28;20079;-57
2021/11/24 05:52:01;;;;;;;1.02;0.82;;;20.30;51.10;;;;;;5033792;28;20061;-60
2021/11/24 05:54:26;;;;;;;1.38;0.98;;;20.30;51.10;;;;;;5030215;28;20124;-60
2021/11/24 05:56:52;;;;;;;1.85;1.10;;;20.30;51.10;;;;;;5032021;28;20045;-59
2021/11/24 05:59:19;;;;;;;1.60;0.95;;;20.30;51.10;;;;;;5031787;28;20469;-60
2021/11/24 06:01:44;;;;;;;1.55;1.00;;;20.30;51.20;;;;;;5037193;28;20079;-57
2021/11/24 06:04:10;;;;;;;1.77;1.10;;;20.30;51.30;;;;;;5035041;28;20029;-55
2021/11/24 06:06:37;;;;;;;2.03;1.00;;;20.30;51.40;;;;;;5034218;28;20072;-59
2021/11/24 06:09:06;;;;;;;2.15;0.90;;;20.30;51.40;;;;;;5032562;28;20026;-59
2021/11/24 06:11:33;;;;;;;1.65;0.98;;;20.30;51.40;;;;;;5033887;28;20029;-59
2021/11/24 06:13:58;;;;;;;1.80;1.02;;;20.30;51.40;;;;;;5037268;28;20033;-60
2021/11/24 06:16:24;;;;;;;1.70;0.90;;;20.30;51.80;;;;;;5034489;28;20390;-60
2021/11/24 06:18:50;;;;;;;2.67;1.05;;;20.30;51.40;;;;;;5036365;28;20037;-59
2021/11/24 06:21:21;;;;;;;1.60;0.98;;;20.30;51.40;;;;;;5033436;28;20036;-60
2021/11/24 06:23:47;;;;;;;1.30;0.90;;;20.30;51.40;;;;;;5032133;28;20041;-61
2021/11/24 06:26:15;;;;;;;1.75;0.98;;;20.30;51.40;;;;;;5032573;28;20603;-59
2021/11/24 06:28:41;;;;;;;3.28;1.17;;;20.30;51.40;;;;;;5030831;28;20049;-58
2021/11/24 06:31:06;;;;;;;2.08;1.00;;;20.30;51.40;;;;;;5036237;28;20199;-59
2021/11/24 06:33:32;;;;;;;2.50;1.05;;;20.20;51.40;;;;;;5050716;28;20022;-60
2021/11/24 06:35:58;;;;;;;1.80;1.00;;;20.30;51.40;;;;;;5034125;28;20029;-59
2021/11/24 06:38:23;;;;;;;2.10;1.00;;;20.30;51.40;;;;;;5033652;28;20707;-58
2021/11/24 06:40:52;;;;;;;3.50;1.25;;;20.30;51.40;;;;;;5034606;28;20033;-58
2021/11/24 06:43:18;;;;;;;1.55;0.93;;;20.20;51.40;;;;;;5031843;28;20093;-58
2021/11/24 06:45:44;;;;;;;2.78;1.20;;;20.20;51.40;;;;;;5034887;28;20037;-60
2021/11/24 06:48:11;;;;;;;1.67;0.98;;;20.20;51.40;;;;;;5036194;28;20120;-60
2021/11/24 06:50:36;;;;;;;3.03;1.10;;;20.20;51.40;;;;;;5037319;28;20452;-61
2021/11/24 06:53:03;;;;;;;1.80;1.15;;;20.20;51.40;;;;;;5034319;28;20059;-59
2021/11/24 06:55:29;;;;;;;1.73;1.10;;;20.20;51.30;;;;;;5039319;28;20020;-60
2021/11/24 06:57:54;;;;;;;2.75;1.35;;;20.20;51.40;;;;;;5032320;28;20237;-59
2021/11/24 07:00:20;;;;;;;1.63;1.00;;;20.20;51.40;;;;;;5036570;28;20086;-59
2021/11/24 07:02:46;;;;;;;1.98;1.10;;;20.20;51.40;;;;;;5029600;28;20034;-61
2021/11/24 07:05:13;;;;;;;2.88;1.20;;;20.20;51.40;;;;;;5033357;28;20016;-59
2021/11/24 07:07:39;;;;;;;2.35;1.02;;;20.20;51.40;;;;;;5034335;28;20037;-59
2021/11/24 07:10:05;;;;;;;2.35;1.05;;;20.20;51.40;;;;;;5035579;28;20659;-57
2021/11/24 07:12:31;;;;;;;1.73;1.00;;;20.20;51.40;;;;;;5034868;28;20083;-59
2021/11/24 07:14:57;;;;;;;2.03;1.13;;;20.20;51.40;;;;;;5032678;28;20037;-60
2021/11/24 07:17:23;;;;;;;3.03;1.35;;;20.20;51.40;;;;;;5037036;28;20032;-57
2021/11/24 07:19:49;;;;;;;2.67;1.40;;;20.20;51.40;;;;;;5034519;28;20064;-61
2021/11/24 07:22:15;;;;;;;2.58;1.10;;;20.20;51.40;;;;;;5033762;28;20037;-59
2021/11/24 07:24:41;;;;;;;2.10;1.20;;;20.20;51.40;;;;;;5033204;28;20025;-58
2021/11/24 07:27:07;;;;;;;2.42;1.00;;;20.20;51.40;;;;;;5031166;28;20033;-60
2021/11/24 07:29:32;;;;;;;2.42;1.20;;;20.20;51.40;;;;;;5036816;28;20028;-60
2021/11/24 07:31:58;;;;;;;2.38;1.13;;;20.20;51.40;;;;;;5035346;28;20620;-61
2021/11/24 07:34:24;;;;;;;1.80;1.10;;;20.20;51.40;;;;;;5031404;28;20033;-59
2021/11/24 07:36:49;;;;;;;2.58;1.20;;;20.20;51.40;;;;;;5029763;28;20030;-58
2021/11/24 07:39:15;;;;;;;1.88;1.15;;;20.10;51.30;;;;;;5035879;28;20032;-58
2021/11/24 07:41:41;;;;;;;2.25;1.20;;;20.10;51.30;;;;;;5033956;28;20051;-59
2021/11/24 07:44:07;;;;;;;1.77;1.10;;;20.10;51.30;;;;;;5031264;28;20485;-60
2021/11/24 07:46:32;;;;;;;1.98;1.17;;;20.10;51.30;;;;;;5031632;28;20029;-60
2021/11/24 07:48:58;;;;;;;2.47;1.25;;;20.10;51.40;;;;;;5035100;28;20576;-59
2021/11/24 07:51:25;;;;;;;2.92;1.30;;;20.10;51.40;;;;;;5031908;28;20018;-60
2021/11/24 07:53:51;;;;;;;2.10;1.02;;;20.10;51.30;;;;;;5030831;28;20751;-60
2021/11/24 07:56:16;;;;;;;1.80;1.10;;;20.10;51.30;;;;;;5031891;28;20083;-59
2021/11/24 07:58:42;;;;;;;2.08;1.13;;;20.10;51.40;;;;;;5032419;28;20091;-59
2021/11/24 08:01:09;;;;;;;2.60;1.20;;;20.10;51.40;;;;;;5033865;28;20075;-60
2021/11/24 08:03:35;;;;;;;2.13;1.08;;;20.10;51.30;;;;;;5032108;28;20028;-59
2021/11/24 08:06:01;;;;;;;2.22;1.30;;;20.10;51.40;;;;;;5031627;28;20025;-61
2021/11/24 08:08:27;;;;;;;2.97;1.40;;;20.10;51.40;;;;;;5032978;28;20052;-61
2021/11/24 08:10:53;;;;;;;2.42;1.27;;;20.10;51.40;;;;;;5028054;28;20120;-61
2021/11/24 08:13:21;;;;;;;3.03;1.42;;;20.10;51.40;;;;;;5034653;28;20268;-60
2021/11/24 08:15:47;;;;;;;1.67;1.10;;;20.00;51.30;;;;;;5032715;28;20034;-59
2021/11/24 08:18:14;;;;;;;2.20;1.33;;;20.10;51.40;;;;;;5037040;28;20094;-59
2021/11/24 08:20:39;;;;;;;2.80;1.30;;;20.00;51.30;;;;;;5030839;28;20029;-58
2021/11/24 08:23:05;;;;;;;3.10;1.50;;;20.00;51.40;;;;;;5033109;28;20027;-59
2021/11/24 08:25:31;;;;;;;2.25;1.40;;;20.10;51.40;;;;;;5031598;28;20037;-59
2021/11/24 08:27:57;;;;;;;2.63;1.45;;;20.10;51.40;;;;;;5033407;28;20618;-59
2021/11/24 08:30:23;;;;;;;2.38;1.30;;;20.00;51.40;;;;;;5031633;28;20033;-59
2021/11/24 08:32:52;;;;;;;2.60;1.52;;;20.00;51.40;;;;;;5032613;28;20060;-59
2021/11/24 08:35:19;;;;;;;2.15;1.25;;;20.00;51.40;;;;;;5029289;28;20030;-59
2021/11/24 08:37:44;;;;;;;2.35;1.40;;;20.00;51.40;;;;;;5033764;28;20033;-61
2021/11/24 08:40:11;;;;;;;2.88;1.55;;;20.00;51.40;;;;;;5030186;28;20063;-60
2021/11/24 08:42:37;;;;;;;2.40;1.40;;;20.00;51.40;;;;;;5030720;28;20065;-58
2021/11/24 08:45:06;;;;;;;2.40;1.30;;;20.00;51.40;;;;;;5033222;28;20028;-58
2021/11/24 08:47:32;;;;;;;2.65;1.42;;;20.00;51.40;;;;;;5039153;28;20037;-59
2021/11/24 08:49:58;;;;;;;3.10;1.65;;;20.00;51.40;;;;;;5033573;28;20369;-60
2021/11/24 08:52:23;;;;;;;2.53;1.50;;;20.00;51.40;;;;;;5033591;28;20060;-60
2021/11/24 08:54:49;;;;;;;2.50;1.40;;;20.00;51.40;;;;;;5033998;28;20032;-60
2021/11/24 08:57:15;;;;;;;3.28;1.55;;;20.00;51.40;;;;;;5036854;28;20441;-58
2021/11/24 08:59:40;;;;;;;2.50;1.42;;;19.90;51.40;;;;;;5035646;28;20140;-59
2021/11/24 09:02:07;;;;;;;2.58;1.55;;;20.00;51.40;;;;;;5035054;28;20119;-61
2021/11/24 09:04:33;;;;;;;2.30;1.42;;;19.90;51.90;;;;;;5037789;28;20215;-58
2021/11/24 09:06:59;;;;;;;3.30;1.85;;;20.00;51.50;;;;;;5036744;28;20569;-60
2021/11/24 09:09:24;;;;;;;2.85;1.60;;;19.90;51.90;;;;;;5034521;28;20112;-57
2021/11/24 09:11:50;;;;;;;2.88;1.80;;;19.90;51.40;;;;;;5036636;28;20034;-57
2021/11/24 09:14:16;;;;;;;2.97;1.70;;;19.90;51.90;;;;;;5037816;28;20402;-60
2021/11/24 09:16:41;;;;;;;3.72;1.70;;;19.90;51.40;;;;;;5041311;28;20123;-59
2021/11/24 09:19:07;;;;;;;3.25;1.90;;;19.90;51.40;;;;;;5039415;28;20117;-59
2021/11/24 09:21:33;;;;;;;2.95;1.70;;;19.90;51.50;;;;;;5043839;28;20067;-59
2021/11/24 09:24:04;;;;;;;3.15;1.75;;;19.90;51.50;;;;;;5033732;28;20037;-59
2021/11/24 09:29:04;;;;;;;2.85;1.77;;;19.90;51.50;;;;;;5040653;28;20665;-60
2021/11/24 09:31:30;;;;;;;3.40;1.90;;;19.90;51.50;;;;;;5041906;28;20398;-60
2021/11/24 09:33:56;;;;;;;3.63;2.20;;;19.90;51.50;;;;;;5036244;28;20032;-58
2021/11/24 09:36:21;;;;;;;3.83;1.73;;;19.90;51.50;;;;;;5039799;28;20047;-57
2021/11/24 09:38:47;;;;;;;3.28;2.03;;;19.90;51.50;;;;;;5035734;28;20063;-60
2021/11/24 09:41:13;;;;;;;3.17;1.92;;;19.90;51.50;;;;;;5038658;28;20060;-60
2021/11/24 09:43:46;;;;;;;3.03;1.90;;;19.90;51.50;;;;;;5045230;28;20036;-60
2021/11/24 09:46:14;;;;;;;3.80;2.10;;;19.80;51.40;;;;;;5040064;28;20095;-60
2021/11/24 09:48:43;;;;;;;2.78;1.85;;;19.80;51.40;;;;;;5042242;28;20031;-60
2021/11/24 09:51:09;;;;;;;4.18;2.20;;;19.90;51.50;;;;;;5037449;28;20095;-59
2021/11/24 09:53:36;;;;;;;4.20;2.40;;;19.90;51.50;;;;;;5037346;28;20180;-60
2021/11/24 09:56:02;;;;;;;3.72;2.17;;;19.90;51.50;;;;;;5037495;28;20033;-60
2021/11/24 09:58:28;;;;;;;3.72;2.20;;;19.80;51.40;;;;;;5037439;28;20029;-61
2021/11/24 10:00:54;;;;;;;4.05;2.20;;;19.90;51.50;;;;;;5039648;28;20043;-60
2021/11/24 10:03:19;;;;;;;3.83;2.25;;;19.90;51.50;;;;;;5046215;28;20032;-59
2021/11/24 10:05:47;;;;;;;3.22;2.30;;;19.90;51.50;;;;;;5035118;28;20032;-58
2021/11/24 10:08:13;;;;;;;3.83;2.20;;;19.80;51.40;;;;;;5037949;28;20029;-58
2021/11/24 10:10:39;;;;;;;3.50;2.30;;;19.80;51.40;;;;;;5037333;28;20061;-60
2021/11/24 10:13:04;;;;;;;3.58;2.22;;;19.80;51.90;;;;;;5036446;28;20064;-58
2021/11/24 10:15:41;;;;;;;4.10;2.60;;;19.80;51.40;;;;;;5037160;28;20036;-59
2021/11/24 10:18:18;;;;;;;4.13;2.30;;;19.80;51.40;;;;;;5036507;28;20116;-58
2021/11/24 10:20:57;;;;;;;3.60;2.45;;;19.80;51.40;;;;;;5032253;28;20587;-59
2021/11/24 10:23:45;;;;;;;4.57;2.88;;;19.80;51.50;;;;;;5032083;28;20533;-60
2021/11/24 10:26:33;;;;;;;4.43;2.50;;;19.80;51.40;;;;;;5033514;28;20053;-58
2021/11/24 10:29:08;;;;;;;3.92;2.40;;;19.80;51.40;;;;;;5035444;28;20086;-59
2021/11/24 10:31:38;;;;;;;4.00;2.60;;;19.80;51.40;;;;;;5031915;28;20037;-60
2021/11/24 10:34:15;;;;;;;3.70;2.35;;;19.80;51.40;;;;;;5035743;28;20048;-59
2021/11/24 10:37:08;;;;;;;4.38;2.70;;;19.80;51.40;;;;;;5036331;28;20056;-60
2021/11/24 10:39:51;;;;;;;4.25;2.55;;;19.80;51.40;;;;;;5034772;28;20437;-60
2021/11/24 10:42:25;;;;;;;4.45;2.72;;;19.80;51.40;;;;;;5037092;28;20033;-59
2021/11/24 10:44:52;;;;;;;4.05;2.70;;;19.80;51.40;;;;;;5031783;28;20623;-60
2021/11/24 10:47:19;;;;;;;4.07;2.90;;;19.80;51.40;;;;;;5034274;28;20033;-59
2021/11/24 10:49:53;;;;;;;4.25;2.55;;;19.80;51.40;;;;;;5034809;28;20029;-59
2021/11/24 10:52:31;;;;;;;4.05;2.60;;;19.80;51.40;;;;;;5035860;28;20481;-59
2021/11/24 10:54:58;;;;;;;4.63;2.65;;;19.80;51.40;;;;;;5032890;28;20033;-59
2021/11/24 10:57:24;;;;;;;4.18;2.80;;;19.80;51.40;;;;;;5034441;28;20115;-59
2021/11/24 10:59:50;;;;;;;3.83;2.53;;;19.80;51.40;;;;;;5031711;28;20076;-59
2021/11/24 11:02:20;;;;;;;4.00;2.45;;;19.80;51.40;;;;;;5034746;28;20080;-60
2021/11/24 11:05:09;;;;;;;4.35;2.70;;;19.80;51.40;;;;;;5033016;28;20036;-59
2021/11/24 11:07:56;;;;;;;3.70;2.50;;;19.80;51.40;;;;;;5034797;28;20167;-61
2021/11/24 11:10:27;;;;;;;3.72;2.60;;;19.80;51.30;;;;;;5032885;28;20057;-60
2021/11/24 11:12:58;;;;;;;4.13;2.50;;;19.80;51.40;;;;;;5036315;28;20021;-59
2021/11/24 11:15:24;;;;;;;4.00;2.58;;;19.70;51.20;;;;;;5035679;28;20120;-60
2021/11/24 11:17:59;;;;;;;4.25;2.67;;;19.70;51.10;;;;;;5040994;28;20035;-58
2021/11/24 11:20:28;;;;;;;4.38;2.63;;;19.70;50.90;;;;;;5032172;28;20041;-60
2021/11/24 11:23:23;;;;;;;3.58;2.65;;;19.70;50.90;;;;;;5035651;28;20080;-59
2021/11/24 11:25:51;;;;;;;4.00;2.65;;;19.70;50.90;;;;;;5033282;28;20074;-59
2021/11/24 11:28:18;;;;;;;3.92;2.75;;;19.70;51.10;;;;;;5030947;28;20029;-59
2021/11/24 11:30:46;;;;;;;4.05;2.65;;;19.70;51.10;;;;;;5031217;28;20125;-55
2021/11/24 11:33:14;;;;;;;3.72;2.70;;;19.70;51.70;;;;;;5031203;28;20025;-59
2021/11/24 11:35:42;;;;;;;4.00;2.80;;;19.70;51.20;;;;;;5029814;28;20071;-58
2021/11/24 11:38:09;;;;;;;3.85;2.70;;;19.70;51.20;;;;;;5032261;28;20056;-59
2021/11/24 11:40:37;;;;;;;4.43;2.78;;;19.70;51.20;;;;;;5028697;28;20030;-58
2021/11/24 11:43:03;;;;;;;3.97;2.78;;;19.70;51.20;;;;;;5035368;28;20060;-58
2021/11/24 11:45:31;;;;;;;4.68;2.90;;;19.70;51.20;;;;;;5035501;28;20041;-57
2021/11/24 11:47:59;;;;;;;4.47;2.70;;;19.70;51.10;;;;;;5029815;28;20040;-58
2021/11/24 11:50:48;;;;;;;4.10;2.70;;;19.70;51.10;;;;;;5030783;28;20040;-58
2021/11/24 11:53:39;;;;;;;5.70;2.80;;;19.70;51.70;;;;;;5036700;28;20071;-57
2021/11/24 11:56:11;;;;;;;4.10;2.72;;;19.70;51.20;;;;;;5029421;28;20029;-59
2021/11/24 11:58:49;;;;;;;3.72;2.65;;;19.60;51.10;;;;;;5034555;28;20041;-60
2021/11/24 12:01:19;;;;;;;3.38;2.70;;;19.60;51.00;;;;;;5031751;28;20047;-59
2021/11/24 12:03:57;;;;;;;4.60;2.78;;;19.60;50.80;;;;;;5032763;28;20781;-59
2021/11/24 12:06:47;;;;;;;4.40;2.90;;;19.60;50.50;;;;;;5036157;28;20078;-59
2021/11/24 12:09:15;;;;;;;4.72;2.72;;;19.60;50.30;;;;;;5032949;28;20044;-59
2021/11/24 12:12:06;;;;;;;4.00;2.73;;;19.60;50.50;;;;;;5029144;28;20029;-58
2021/11/24 12:14:56;;;;;;;4.38;2.65;;;19.60;50.50;;;;;;5036472;28;20143;-58
2021/11/24 12:17:27;;;;;;;;;;;19.60;50.60;;;;;;5034617;28;20393;-59
2021/11/24 12:19:55;;;;;;;3.95;2.47;;;19.60;50.80;;;;;;5032687;28;19959;-58
2021/11/24 12:25:30;;;;;;;3.80;2.60;;;19.60;50.80;;;;;;5027112;28;20029;-58
2021/11/24 12:27:58;;;;;;;3.80;2.47;;;19.60;50.90;;;;;;5029125;28;20150;-60
2021/11/24 12:30:40;;;;;;;4.22;2.80;;;19.60;51.00;;;;;;5025863;28;20127;-59
2021/11/24 12:33:18;;;;;;;4.35;2.50;;;19.60;51.10;;;;;;5028155;28;20706;-58
2021/11/24 12:36:00;;;;;;;3.50;2.60;;;19.60;51.20;;;;;;5025759;28;20092;-59
2021/11/24 12:38:27;;;;;;;4.40;2.50;;;19.60;51.30;;;;;;5063673;28;20578;-59
2021/11/24 12:40:55;;;;;;;3.75;2.42;;;19.60;51.40;;;;;;5026201;28;20040;-59
2021/11/24 12:43:24;;;;;;;3.80;2.70;;;19.60;51.50;;;;;;5030587;28;20029;-60
2021/11/24 12:46:18;;;;;;;3.78;2.60;;;19.60;51.60;;;;;;5034963;28;20146;-59
2021/11/24 12:48:51;;;;;;;3.83;2.63;;;19.60;51.70;;;;;;5033139;28;20102;-60
2021/11/24 12:51:30;;;;;;;4.72;2.75;;;19.60;51.80;;;;;;5030456;28;20017;-60
2021/11/24 12:54:02;;;;;;;3.70;2.50;;;19.60;51.90;;;;;;5033101;28;20040;-57
2021/11/24 12:56:31;;;;;;;4.18;2.35;;;19.60;52.40;;;;;;5026424;28;20037;-58